Time;durP1;ratioP1;P1;durP2;ratioP2;P2;SDS_P1;SDS_P2;PMS_P1;PMS_P2;Temp;Humidity;BMP_temperature;BMP_pressure;BME280_temperature;BME280_humidity;BME280_pressure;Samples;Min_cycle;Max_cycle;Signal;HPM_P1;HPM_P2
2024/01/15 00:01:57;;;;;;;13.20;6.50;;;;;;;;;;5031626;28;20302;-61
2024/01/15 00:04:24;;;;;;;12.33;5.23;;;;;;;;;;5031755;28;20299;-61
2024/01/15 00:06:51;;;;;;;15.50;6.30;;;;;;;;;;5032277;28;20234;-60
2024/01/15 00:09:18;;;;;;;16.53;6.63;;;;;;;;;;5032069;28;20208;-60
2024/01/15 00:11:46;;;;;;;11.67;5.20;;;;;;;;;;5041545;28;20248;-60
2024/01/15 00:14:19;;;;;;;14.00;5.60;;;;;;;;;;5031829;28;20662;-60
2024/01/15 00:16:46;;;;;;;10.13;5.47;;;;;;;;;;5031400;28;20263;-61
2024/01/15 00:19:13;;;;;;;16.60;6.37;;;;;;;;;;5031793;28;20204;-60
2024/01/15 00:21:41;;;;;;;15.77;5.80;;;;;;;;;;5032235;28;20215;-60
2024/01/15 00:24:08;;;;;;;14.67;6.73;;;;;;;;;;5035478;28;20211;-61
2024/01/15 00:26:35;;;;;;;18.20;6.63;;;;;;;;;;5033223;28;20220;-61
2024/01/15 00:29:02;;;;;;;14.90;6.67;;;;;;;;;;5032164;28;20230;-61
2024/01/15 00:31:31;;;;;;;16.10;7.27;;;;;;;;;;5032903;28;20239;-61
2024/01/15 00:33:58;;;;;;;17.93;5.90;;;;;;;;;;5034843;28;20211;-60
2024/01/15 00:36:25;;;;;;;18.30;5.70;;;;;;;;;;5034945;28;20203;-60
2024/01/15 00:38:52;;;;;;;16.60;6.17;;;;;;;;;;5031621;28;20208;-61
2024/01/15 00:41:19;;;;;;;14.03;5.70;;;;;;;;;;5032149;28;20207;-61
2024/01/15 00:43:48;;;;;;;12.60;6.20;;;;;;;;;;5031616;28;20211;-61
2024/01/15 00:46:15;;;;;;;12.33;5.50;;;;;;;;;;5036387;28;20242;-60
2024/01/15 00:48:44;;;;;;;13.20;6.07;;;;;;;;;;5034361;28;20215;-60
2024/01/15 00:51:11;;;;;;;13.57;6.03;;;;;;;;;;5030864;28;20420;-60
2024/01/15 00:53:38;;;;;;;12.73;6.37;;;;;;;;;;5031262;28;20213;-60
2024/01/15 00:56:05;;;;;;;26.90;6.70;;;;;;;;;;5031160;28;20219;-61
2024/01/15 00:58:33;;;;;;;19.13;6.47;;;;;;;;;;5030228;28;20239;-61
2024/01/15 01:01:00;;;;;;;15.53;6.10;;;;;;;;;;5031080;28;20597;-61
2024/01/15 01:03:27;;;;;;;20.67;6.90;;;;;;;;;;5034524;28;20216;-59
2024/01/15 01:05:55;;;;;;;16.83;6.47;;;;;;;;;;5021845;28;20205;-59
2024/01/15 01:08:22;;;;;;;13.67;5.73;;;;;;;;;;5034241;28;20239;-59
2024/01/15 01:10:49;;;;;;;14.33;6.43;;;;;;;;;;5042938;28;20575;-59
2024/01/15 01:13:16;;;;;;;19.17;7.27;;;;;;;;;;5031215;28;20267;-59
2024/01/15 01:15:43;;;;;;;13.20;6.03;;;;;;;;;;5033768;28;20612;-59
2024/01/15 01:18:10;;;;;;;13.67;5.87;;;;;;;;;;5035010;28;20235;-59
2024/01/15 01:20:37;;;;;;;21.07;6.83;;;;;;;;;;5039128;28;20235;-59
2024/01/15 01:23:05;;;;;;;14.60;6.03;;;;;;;;;;5031444;28;20218;-59
2024/01/15 01:25:32;;;;;;;15.67;6.37;;;;;;;;;;5030210;28;20243;-59
2024/01/15 01:27:59;;;;;;;16.27;5.97;;;;;;;;;;5039356;28;20211;-59
2024/01/15 01:30:27;;;;;;;13.07;5.93;;;;;;;;;;5030785;28;20211;-59
2024/01/15 01:32:54;;;;;;;15.33;5.93;;;;;;;;;;5035772;28;20211;-60
2024/01/15 01:35:21;;;;;;;16.03;6.60;;;;;;;;;;5031121;28;20757;-59
2024/01/15 01:37:48;;;;;;;18.57;5.90;;;;;;;;;;5037068;28;20278;-59
2024/01/15 01:40:16;;;;;;;17.47;6.47;;;;;;;;;;5030208;28;20261;-60
2024/01/15 01:42:43;;;;;;;17.60;6.20;;;;;;;;;;5041771;28;20235;-59
2024/01/15 01:45:10;;;;;;;20.10;6.97;;;;;;;;;;5038497;28;20205;-60
2024/01/15 01:47:37;;;;;;;13.20;5.43;;;;;;;;;;5044776;28;20215;-60
2024/01/15 01:50:05;;;;;;;14.33;6.03;;;;;;;;;;5038703;28;20269;-60
2024/01/15 01:52:32;;;;;;;15.17;5.97;;;;;;;;;;5031406;28;20454;-60
2024/01/15 01:55:00;;;;;;;11.10;4.17;;;;;;;;;;5029903;28;20231;-59
2024/01/15 01:57:28;;;;;;;13.13;5.43;;;;;;;;;;5029158;28;20236;-60
2024/01/15 01:59:55;;;;;;;15.63;6.50;;;;;;;;;;5035887;28;20207;-60
2024/01/15 02:02:22;;;;;;;11.67;5.83;;;;;;;;;;5038662;28;20212;-60
2024/01/15 02:04:50;;;;;;;12.27;5.53;;;;;;;;;;5029694;28;20232;-60
2024/01/15 02:07:17;;;;;;;15.30;5.70;;;;;;;;;;5032666;28;20784;-59
2024/01/15 02:09:45;;;;;;;19.03;5.57;;;;;;;;;;5041227;28;20306;-60
2024/01/15 02:12:12;;;;;;;13.20;5.93;;;;;;;;;;5029658;28;20220;-60
2024/01/15 02:14:42;;;;;;;14.73;6.00;;;;;;;;;;5029443;28;20211;-60
2024/01/15 02:17:09;;;;;;;14.47;6.47;;;;;;;;;;5037557;28;20235;-60
2024/01/15 02:19:36;;;;;;;14.03;5.37;;;;;;;;;;5031473;28;20197;-60
2024/01/15 02:22:03;;;;;;;13.07;5.50;;;;;;;;;;5038559;28;20941;-59
2024/01/15 02:24:31;;;;;;;9.80;4.17;;;;;;;;;;5031778;28;20210;-60
2024/01/15 02:26:58;;;;;;;14.23;6.00;;;;;;;;;;5029043;28;20439;-60
2024/01/15 02:29:25;;;;;;;14.27;6.33;;;;;;;;;;5033239;28;20231;-60
2024/01/15 02:31:52;;;;;;;11.00;5.27;;;;;;;;;;5030251;28;20214;-60
2024/01/15 02:34:19;;;;;;;15.13;5.63;;;;;;;;;;5036229;28;20582;-59
2024/01/15 02:36:46;;;;;;;11.10;5.13;;;;;;;;;;5039839;28;20196;-60
2024/01/15 02:39:13;;;;;;;12.17;5.50;;;;;;;;;;5036501;28;20227;-60
2024/01/15 02:41:41;;;;;;;13.30;5.93;;;;;;;;;;5036975;28;20233;-62
2024/01/15 02:44:09;;;;;;;10.17;4.80;;;;;;;;;;5032306;28;20211;-60
2024/01/15 02:46:36;;;;;;;16.43;5.97;;;;;;;;;;5044884;28;20211;-60
2024/01/15 02:49:03;;;;;;;15.20;5.50;;;;;;;;;;5032465;28;20203;-60
2024/01/15 02:51:30;;;;;;;14.60;5.97;;;;;;;;;;5039775;28;20235;-60
2024/01/15 02:53:57;;;;;;;14.23;5.43;;;;;;;;;;5039547;28;20214;-60
2024/01/15 02:56:24;;;;;;;15.87;5.47;;;;;;;;;;5042431;28;20207;-60
2024/01/15 02:58:52;;;;;;;13.80;5.27;;;;;;;;;;5040797;28;20243;-60
2024/01/15 03:01:20;;;;;;;12.67;5.10;;;;;;;;;;5037087;28;20223;-60
2024/01/15 03:03:47;;;;;;;12.67;5.03;;;;;;;;;;5038954;28;20238;-60
2024/01/15 03:06:14;;;;;;;10.90;4.93;;;;;;;;;;5037198;28;20770;-60
2024/01/15 03:08:41;;;;;;;6.70;3.47;;;;;;;;;;5038593;28;20207;-59
2024/01/15 03:11:08;;;;;;;8.90;4.53;;;;;;;;;;5041012;28;20212;-59
2024/01/15 03:13:37;;;;;;;12.50;5.13;;;;;;;;;;5028382;28;20705;-59
2024/01/15 03:16:05;;;;;;;13.30;5.67;;;;;;;;;;5036817;28;20211;-59
2024/01/15 03:18:32;;;;;;;9.80;4.87;;;;;;;;;;5031047;28;20223;-60
2024/01/15 03:21:01;;;;;;;12.53;4.77;;;;;;;;;;5042050;28;20296;-59
2024/01/15 03:23:28;;;;;;;12.40;4.70;;;;;;;;;;5048615;28;20219;-59
2024/01/15 03:25:54;;;;;;;10.47;4.60;;;;;;;;;;5030227;28;20591;-59
2024/01/15 03:28:21;;;;;;;10.83;4.70;;;;;;;;;;5035444;28;20196;-59
2024/01/15 03:30:48;;;;;;;12.40;4.37;;;;;;;;;;5032465;28;20429;-60
2024/01/15 03:33:16;;;;;;;10.40;4.57;;;;;;;;;;5032250;28;20690;-59
2024/01/15 03:35:43;;;;;;;12.50;5.07;;;;;;;;;;5052362;28;20252;-59
2024/01/15 03:38:10;;;;;;;12.27;4.77;;;;;;;;;;5036679;28;20228;-60
2024/01/15 03:41:11;;;;;;;11.77;4.90;;;;;;;;;;5033789;28;20204;-60
2024/01/15 03:43:38;;;;;;;11.10;5.63;;;;;;;;;;5029158;28;20216;-59
2024/01/15 03:46:05;;;;;;;9.03;5.07;;;;;;;;;;5032826;28;20212;-60
2024/01/15 03:48:33;;;;;;;10.30;4.67;;;;;;;;;;5038694;28;20200;-60
2024/01/15 03:51:00;;;;;;;11.90;4.40;;;;;;;;;;5040587;28;20204;-59
2024/01/15 03:53:27;;;;;;;11.53;4.63;;;;;;;;;;5032280;28;20234;-60
2024/01/15 03:55:54;;;;;;;12.73;4.70;;;;;;;;;;5032262;28;20205;-60
2024/01/15 03:58:21;;;;;;;16.53;5.00;;;;;;;;;;5032298;28;20228;-60
2024/01/15 04:00:49;;;;;;;12.17;4.97;;;;;;;;;;5033680;28;20193;-59
2024/01/15 04:03:16;;;;;;;16.57;5.47;;;;;;;;;;5035028;28;20649;-60
2024/01/15 04:05:44;;;;;;;11.87;5.17;;;;;;;;;;5044697;28;20642;-59
2024/01/15 04:08:11;;;;;;;13.33;5.33;;;;;;;;;;5033339;28;20240;-60
2024/01/15 04:10:38;;;;;;;12.00;4.97;;;;;;;;;;5031205;28;20208;-59
2024/01/15 04:13:05;;;;;;;10.80;4.90;;;;;;;;;;5040744;28;20261;-60
2024/01/15 04:15:32;;;;;;;11.43;5.23;;;;;;;;;;5045049;28;20215;-60
2024/01/15 04:18:00;;;;;;;12.83;5.37;;;;;;;;;;5032446;28;20239;-59
2024/01/15 04:20:27;;;;;;;10.77;5.60;;;;;;;;;;5031528;28;20220;-60
2024/01/15 04:22:56;;;;;;;12.80;5.20;;;;;;;;;;5043601;28;20208;-59
2024/01/15 04:25:23;;;;;;;14.63;5.53;;;;;;;;;;5039630;28;20203;-59
2024/01/15 04:27:50;;;;;;;15.20;6.00;;;;;;;;;;5037060;28;20592;-60
2024/01/15 04:30:17;;;;;;;12.60;5.33;;;;;;;;;;5031103;28;20203;-59
2024/01/15 04:32:44;;;;;;;13.23;5.70;;;;;;;;;;5031305;28;20208;-59
2024/01/15 04:35:12;;;;;;;13.87;5.63;;;;;;;;;;5033285;28;20557;-59
2024/01/15 04:37:39;;;;;;;11.50;5.43;;;;;;;;;;5039330;28;20207;-59
2024/01/15 04:40:08;;;;;;;11.87;5.23;;;;;;;;;;5031142;28;20208;-60
2024/01/15 04:42:35;;;;;;;14.60;5.40;;;;;;;;;;5010620;28;20209;-60
2024/01/15 04:45:03;;;;;;;14.73;5.07;;;;;;;;;;5030250;28;20693;-60
2024/01/15 04:47:30;;;;;;;12.33;5.23;;;;;;;;;;5033786;28;20219;-60
2024/01/15 04:49:57;;;;;;;14.63;6.07;;;;;;;;;;5031048;28;20689;-60
2024/01/15 04:52:24;;;;;;;11.80;4.97;;;;;;;;;;5031108;28;20243;-60
2024/01/15 04:54:51;;;;;;;11.73;5.53;;;;;;;;;;5034350;28;20212;-60
2024/01/15 04:57:20;;;;;;;13.13;5.27;;;;;;;;;;5044285;28;20201;-59
2024/01/15 04:59:47;;;;;;;9.57;5.13;;;;;;;;;;5031958;28;20237;-59
2024/01/15 05:02:14;;;;;;;10.13;4.37;;;;;;;;;;5031457;28;20231;-59
2024/01/15 05:04:41;;;;;;;16.27;5.77;;;;;;;;;;5030862;28;20204;-59
2024/01/15 05:07:08;;;;;;;15.60;5.23;;;;;;;;;;5030420;28;20242;-60
2024/01/15 05:09:35;;;;;;;11.53;5.67;;;;;;;;;;5027792;28;20307;-60
2024/01/15 05:12:02;;;;;;;15.03;6.00;;;;;;;;;;5030776;28;20231;-60
2024/01/15 05:14:30;;;;;;;10.67;4.97;;;;;;;;;;5030840;28;20217;-59
2024/01/15 05:16:57;;;;;;;12.50;5.33;;;;;;;;;;5034121;28;20212;-59
2024/01/15 05:19:24;;;;;;;11.53;4.93;;;;;;;;;;5030533;28;20622;-59
2024/01/15 05:21:51;;;;;;;9.80;5.23;;;;;;;;;;5030111;28;20203;-59
2024/01/15 05:24:18;;;;;;;14.10;5.60;;;;;;;;;;5042429;28;20200;-60
2024/01/15 05:26:45;;;;;;;12.80;5.33;;;;;;;;;;5038879;28;20211;-60
2024/01/15 05:29:12;;;;;;;12.07;5.30;;;;;;;;;;5036971;28;20211;-60
2024/01/15 05:31:41;;;;;;;11.13;5.13;;;;;;;;;;5030461;28;20219;-59
2024/01/15 05:34:08;;;;;;;10.77;5.13;;;;;;;;;;5023580;28;20218;-59
2024/01/15 05:36:35;;;;;;;15.80;5.70;;;;;;;;;;5030566;28;20212;-61
2024/01/15 05:39:02;;;;;;;14.97;6.00;;;;;;;;;;5033787;28;20232;-59
2024/01/15 05:41:29;;;;;;;9.73;5.43;;;;;;;;;;5048003;28;20677;-59
2024/01/15 05:43:56;;;;;;;12.03;4.77;;;;;;;;;;5039504;28;20204;-59
2024/01/15 05:46:23;;;;;;;9.87;4.80;;;;;;;;;;5043148;28;20201;-60
2024/01/15 05:48:52;;;;;;;13.20;5.60;;;;;;;;;;5029363;28;20565;-59
2024/01/15 05:51:19;;;;;;;11.50;5.17;;;;;;;;;;5043443;28;20213;-59
2024/01/15 05:53:46;;;;;;;15.23;5.43;;;;;;;;;;5049937;28;20207;-59
2024/01/15 05:56:13;;;;;;;12.63;5.57;;;;;;;;;;5050132;28;20227;-59
2024/01/15 05:58:40;;;;;;;10.67;5.13;;;;;;;;;;5035214;28;20233;-60
2024/01/15 06:01:07;;;;;;;14.60;5.57;;;;;;;;;;5030712;28;20208;-59
2024/01/15 06:03:34;;;;;;;13.27;5.30;;;;;;;;;;5032389;28;20196;-59
2024/01/15 06:06:02;;;;;;;8.30;4.80;;;;;;;;;;5037041;28;20211;-59
2024/01/15 06:08:29;;;;;;;12.97;5.70;;;;;;;;;;5030899;28;20235;-59
2024/01/15 06:10:57;;;;;;;8.87;4.97;;;;;;;;;;5042080;28;20216;-60
2024/01/15 06:13:25;;;;;;;15.43;5.77;;;;;;;;;;5029424;28;20205;-59
2024/01/15 06:15:52;;;;;;;10.33;5.03;;;;;;;;;;5032506;28;20218;-60
2024/01/15 06:18:19;;;;;;;8.70;5.27;;;;;;;;;;5035081;28;20204;-59
2024/01/15 06:20:46;;;;;;;14.67;5.43;;;;;;;;;;5029266;28;20580;-59
2024/01/15 06:23:14;;;;;;;8.00;4.70;;;;;;;;;;5029333;28;20291;-61
2024/01/15 06:25:42;;;;;;;11.13;5.17;;;;;;;;;;5032360;28;20198;-59
2024/01/15 06:28:09;;;;;;;10.77;4.87;;;;;;;;;;5036051;28;20217;-60
2024/01/15 06:30:40;;;;;;;11.90;5.53;;;;;;;;;;5038287;28;20220;-60
2024/01/15 06:33:08;;;;;;;9.73;4.73;;;;;;;;;;5024787;28;20647;-60
2024/01/15 06:35:35;;;;;;;12.83;5.43;;;;;;;;;;5028723;28;20591;-60
2024/01/15 06:38:02;;;;;;;9.40;4.87;;;;;;;;;;5026710;28;20237;-60
2024/01/15 06:40:30;;;;;;;12.67;5.60;;;;;;;;;;5035242;28;20219;-60
2024/01/15 06:42:57;;;;;;;10.67;5.47;;;;;;;;;;5035823;28;20214;-60
2024/01/15 06:45:24;;;;;;;10.67;5.73;;;;;;;;;;5027955;28;20227;-60
2024/01/15 06:47:51;;;;;;;12.07;5.27;;;;;;;;;;5026223;28;20648;-59
2024/01/15 06:50:18;;;;;;;10.50;5.37;;;;;;;;;;5024804;28;20208;-59
2024/01/15 06:52:45;;;;;;;11.47;5.30;;;;;;;;;;5021886;28;20216;-59
2024/01/15 06:55:12;;;;;;;11.30;5.50;;;;;;;;;;5027375;28;20222;-59
2024/01/15 06:57:41;;;;;;;11.93;4.93;;;;;;;;;;5027445;28;20654;-59
2024/01/15 07:00:09;;;;;;;16.50;6.30;;;;;;;;;;5027690;28;20245;-60
2024/01/15 07:02:36;;;;;;;12.50;5.77;;;;;;;;;;5028470;28;20654;-60
2024/01/15 07:05:04;;;;;;;11.07;5.17;;;;;;;;;;5024492;28;20213;-60
2024/01/15 07:07:32;;;;;;;15.40;6.03;;;;;;;;;;5016648;28;20255;-60
2024/01/15 07:09:59;;;;;;;9.30;5.00;;;;;;;;;;5008674;28;20213;-60
2024/01/15 07:12:26;;;;;;;12.83;6.57;;;;;;;;;;5008367;28;20277;-60
2024/01/15 07:14:54;;;;;;;18.23;6.37;;;;;;;;;;5008871;28;20209;-60
2024/01/15 07:17:21;;;;;;;12.03;5.80;;;;;;;;;;5008654;28;20333;-60
2024/01/15 07:19:48;;;;;;;13.50;5.83;;;;;;;;;;5018358;28;20229;-59
2024/01/15 07:22:17;;;;;;;15.13;5.97;;;;;;;;;;5028073;28;20221;-60
2024/01/15 07:24:44;;;;;;;14.50;6.57;;;;;;;;;;5028040;28;20215;-60
2024/01/15 07:27:11;;;;;;;14.77;5.60;;;;;;;;;;5027600;28;20430;-60
2024/01/15 07:29:38;;;;;;;14.60;6.30;;;;;;;;;;5028251;28;20206;-60
2024/01/15 07:32:07;;;;;;;12.90;6.07;;;;;;;;;;5027957;28;20224;-60
2024/01/15 07:34:34;;;;;;;18.80;6.77;;;;;;;;;;5028019;28;20714;-60
2024/01/15 07:37:02;;;;;;;12.83;5.93;;;;;;;;;;5028227;28;20219;-60
2024/01/15 07:39:30;;;;;;;14.93;6.63;;;;;;;;;;5027894;28;20222;-60
2024/01/15 07:41:57;;;;;;;11.93;6.27;;;;;;;;;;5026286;28;20698;-60
2024/01/15 07:44:24;;;;;;;11.87;6.37;;;;;;;;;;5028389;28;20222;-60
2024/01/15 07:46:51;;;;;;;15.07;6.43;;;;;;;;;;5028443;28;20223;-60
2024/01/15 07:49:20;;;;;;;15.90;6.67;;;;;;;;;;5027828;28;20212;-59
2024/01/15 07:51:47;;;;;;;12.73;6.00;;;;;;;;;;5027328;28;20205;-60
2024/01/15 07:54:14;;;;;;;17.30;6.53;;;;;;;;;;5028092;28;20217;-60
2024/01/15 07:56:54;;;;;;;16.70;6.40;;;;;;;;;;5028281;28;20218;-60
2024/01/15 07:59:21;;;;;;;11.83;6.07;;;;;;;;;;5027882;28;20242;-60
2024/01/15 08:01:48;;;;;;;12.47;5.60;;;;;;;;;;5027920;28;20220;-60
2024/01/15 08:04:15;;;;;;;13.43;5.87;;;;;;;;;;5028183;28;20587;-60
2024/01/15 08:06:44;;;;;;;10.27;5.83;;;;;;;;;;5027585;28;20253;-60
2024/01/15 08:09:12;;;;;;;12.17;5.80;;;;;;;;;;5027978;28;20212;-61
2024/01/15 08:11:41;;;;;;;13.93;6.50;;;;;;;;;;5027672;28;20289;-60
2024/01/15 08:14:08;;;;;;;11.53;5.23;;;;;;;;;;5028250;28;20216;-59
2024/01/15 08:16:35;;;;;;;14.57;6.23;;;;;;;;;;5027916;28;20205;-60
2024/01/15 08:19:02;;;;;;;16.13;6.27;;;;;;;;;;5031154;28;20231;-60
2024/01/15 08:21:31;;;;;;;12.90;5.93;;;;;;;;;;5031224;28;20318;-60
2024/01/15 08:24:00;;;;;;;14.70;6.23;;;;;;;;;;5031099;28;20219;-60
2024/01/15 08:26:27;;;;;;;11.50;5.27;;;;;;;;;;5031691;28;20207;-60
2024/01/15 08:28:54;;;;;;;12.43;6.17;;;;;;;;;;5030992;28;20208;-60
2024/01/15 08:31:21;;;;;;;12.03;5.50;;;;;;;;;;5030487;28;20219;-66
2024/01/15 08:33:48;;;;;;;13.13;5.73;;;;;;;;;;5031590;28;20306;-61
2024/01/15 08:36:15;;;;;;;16.97;6.17;;;;;;;;;;5031527;28;20209;-60
2024/01/15 08:38:42;;;;;;;9.97;5.83;;;;;;;;;;5031130;28;20281;-60
2024/01/15 08:41:10;;;;;;;14.80;5.83;;;;;;;;;;5030662;28;20286;-60
2024/01/15 08:43:38;;;;;;;13.27;5.90;;;;;;;;;;5030403;28;20207;-60
2024/01/15 08:46:05;;;;;;;11.53;6.20;;;;;;;;;;5030923;28;20203;-60
2024/01/15 08:48:32;;;;;;;12.10;5.17;;;;;;;;;;5031191;28;20204;-63
2024/01/15 08:50:59;;;;;;;11.53;6.30;;;;;;;;;;5031086;28;20207;-60
2024/01/15 08:53:27;;;;;;;11.60;5.97;;;;;;;;;;5029862;28;20273;-60
2024/01/15 08:55:54;;;;;;;11.20;6.07;;;;;;;;;;5030505;28;20204;-60
2024/01/15 08:58:22;;;;;;;10.97;5.77;;;;;;;;;;5030151;28;20706;-60
2024/01/15 09:00:50;;;;;;;12.63;6.17;;;;;;;;;;5030621;28;20325;-60
2024/01/15 09:03:17;;;;;;;10.77;6.20;;;;;;;;;;5030448;28;20269;-60
2024/01/15 09:05:44;;;;;;;15.23;6.30;;;;;;;;;;5030222;28;20215;-59
2024/01/15 09:08:11;;;;;;;12.50;5.63;;;;;;;;;;5029973;28;20246;-60
2024/01/15 09:10:43;;;;;;;13.67;6.17;;;;;;;;;;5030270;28;20201;-59
2024/01/15 09:13:11;;;;;;;13.03;5.70;;;;;;;;;;5029858;28;20204;-60
2024/01/15 09:15:39;;;;;;;9.83;5.57;;;;;;;;;;5029901;28;20426;-59
2024/01/15 09:18:06;;;;;;;8.13;5.50;;;;;;;;;;5030188;28;20211;-62
2024/01/15 09:20:38;;;;;;;11.63;5.80;;;;;;;;;;5030739;28;20232;-59
2024/01/15 09:23:05;;;;;;;12.03;6.13;;;;;;;;;;5029903;28;20207;-60
2024/01/15 09:25:32;;;;;;;9.60;5.57;;;;;;;;;;5029703;28;20890;-60
2024/01/15 09:28:00;;;;;;;12.93;5.77;;;;;;;;;;5029752;28;20217;-60
2024/01/15 09:30:27;;;;;;;13.00;7.23;;;;;;;;;;5029621;28;20212;-61
2024/01/15 09:32:57;;;;;;;12.50;5.93;;;;;;;;;;5029440;28;20718;-60
2024/01/15 09:35:24;;;;;;;9.73;5.63;;;;;;;;;;5029400;28;20342;-59
2024/01/15 09:37:51;;;;;;;13.80;5.37;;;;;;;;;;5029764;28;20230;-60
2024/01/15 09:40:19;;;;;;;11.97;5.70;;;;;;;;;;5029340;28;20227;-60
2024/01/15 09:42:46;;;;;;;10.63;5.73;;;;;;;;;;5030049;28;20287;-59
2024/01/15 09:45:13;;;;;;;9.90;5.80;;;;;;;;;;5029942;28;20212;-61
2024/01/15 09:47:41;;;;;;;12.00;5.87;;;;;;;;;;5029873;28;20209;-60
2024/01/15 09:50:10;;;;;;;10.27;5.70;;;;;;;;;;5029826;28;20552;-60
2024/01/15 09:52:37;;;;;;;12.97;5.43;;;;;;;;;;5027447;28;20208;-59
2024/01/15 09:55:05;;;;;;;10.37;5.33;;;;;;;;;;5029341;28;20723;-60
2024/01/15 09:57:33;;;;;;;11.53;5.70;;;;;;;;;;5029569;28;20708;-60
2024/01/15 10:00:01;;;;;;;10.50;5.53;;;;;;;;;;5029087;28;20642;-60
2024/01/15 10:02:28;;;;;;;11.47;5.50;;;;;;;;;;5029074;28;20218;-60
2024/01/15 10:04:55;;;;;;;11.53;6.00;;;;;;;;;;5029220;28;20880;-60
2024/01/15 10:07:24;;;;;;;8.33;4.93;;;;;;;;;;5029467;28;20239;-60
2024/01/15 10:09:51;;;;;;;9.90;5.87;;;;;;;;;;5029253;28;20202;-60
2024/01/15 10:12:18;;;;;;;9.10;5.70;;;;;;;;;;5028602;28;20230;-61
2024/01/15 10:14:45;;;;;;;10.83;5.30;;;;;;;;;;5029217;28;20640;-60
2024/01/15 10:17:15;;;;;;;9.47;5.37;;;;;;;;;;5028864;28;20209;-60
2024/01/15 10:19:42;;;;;;;17.60;7.33;;;;;;;;;;5029252;28;20790;-60
2024/01/15 10:22:10;;;;;;;10.53;5.77;;;;;;;;;;5028891;28;20206;-60
2024/01/15 10:24:38;;;;;;;11.23;5.83;;;;;;;;;;5029025;28;20563;-60
2024/01/15 10:27:09;;;;;;;13.23;6.13;;;;;;;;;;5029257;28;20227;-61
2024/01/15 10:29:37;;;;;;;9.10;5.27;;;;;;;;;;5028806;28;20266;-60
2024/01/15 10:32:04;;;;;;;9.40;5.10;;;;;;;;;;5028563;28;20216;-60
2024/01/15 10:34:32;;;;;;;11.67;5.90;;;;;;;;;;5028331;28;20701;-61
2024/01/15 10:36:59;;;;;;;11.50;6.13;;;;;;;;;;5028951;28;20538;-60
2024/01/15 10:39:26;;;;;;;12.73;5.40;;;;;;;;;;5028660;28;20207;-60
2024/01/15 10:41:54;;;;;;;11.43;5.93;;;;;;;;;;5027334;28;20212;-60
2024/01/15 10:44:21;;;;;;;10.80;5.80;;;;;;;;;;5027750;28;20211;-60
2024/01/15 10:46:48;;;;;;;10.60;5.73;;;;;;;;;;5028592;28;20700;-60
2024/01/15 10:49:15;;;;;;;8.47;5.93;;;;;;;;;;5028538;28;20557;-61
2024/01/15 10:51:43;;;;;;;11.27;6.10;;;;;;;;;;5028525;28;20592;-60
2024/01/15 10:54:11;;;;;;;14.20;7.03;;;;;;;;;;5028387;28;20494;-60
2024/01/15 10:56:38;;;;;;;8.47;5.70;;;;;;;;;;5028516;28;20236;-60
2024/01/15 10:59:09;;;;;;;13.03;7.53;;;;;;;;;;5028544;28;20236;-65
2024/01/15 11:01:37;;;;;;;13.00;6.27;;;;;;;;;;5027334;28;20232;-61
2024/01/15 11:04:05;;;;;;;9.53;6.13;;;;;;;;;;5028652;28;20709;-61
2024/01/15 11:06:43;;;;;;;13.80;7.00;;;;;;;;;;5027733;28;20694;-60
2024/01/15 11:09:10;;;;;;;11.77;6.43;;;;;;;;;;5028467;28;20218;-60
2024/01/15 11:11:37;;;;;;;13.33;7.30;;;;;;;;;;5027818;28;20208;-61
2024/01/15 11:14:04;;;;;;;17.50;6.80;;;;;;;;;;5028444;28;20247;-61
2024/01/15 11:16:46;;;;;;;15.50;7.03;;;;;;;;;;5028153;28;20766;-61
2024/01/15 11:19:15;;;;;;;10.53;6.27;;;;;;;;;;5027886;28;20634;-61
2024/01/15 11:21:44;;;;;;;12.27;6.40;;;;;;;;;;5047871;28;20232;-61
2024/01/15 11:24:12;;;;;;;11.83;6.73;;;;;;;;;;5043480;28;20309;-61
2024/01/15 11:26:45;;;;;;;10.87;5.87;;;;;;;;;;5026773;28;20618;-60
2024/01/15 11:29:29;;;;;;;11.63;5.83;;;;;;;;;;5028095;28;20209;-61
2024/01/15 11:32:01;;;;;;;9.37;5.10;;;;;;;;;;5027764;28;20577;-61
2024/01/15 11:34:47;;;;;;;14.87;7.77;;;;;;;;;;5028248;28;20536;-61
2024/01/15 11:37:15;;;;;;;9.27;5.70;;;;;;;;;;5027737;28;20212;-61
2024/01/15 11:39:46;;;;;;;8.50;5.20;;;;;;;;;;5027932;28;20207;-61
2024/01/15 11:42:13;;;;;;;10.67;5.93;;;;;;;;;;5027650;28;20208;-61
2024/01/15 11:44:40;;;;;;;8.53;5.17;;;;;;;;;;5027375;28;20205;-62
2024/01/15 11:47:08;;;;;;;10.83;6.60;;;;;;;;;;5028021;28;20216;-61
2024/01/15 11:49:50;;;;;;;8.03;5.83;;;;;;;;;;5028020;28;20211;-62
2024/01/15 11:52:19;;;;;;;8.30;5.13;;;;;;;;;;5028771;28;20591;-61
2024/01/15 11:54:49;;;;;;;10.53;6.07;;;;;;;;;;5031903;28;20295;-62
2024/01/15 11:57:20;;;;;;;9.17;5.17;;;;;;;;;;5031662;28;20314;-61
2024/01/15 11:59:48;;;;;;;11.50;6.30;;;;;;;;;;5028242;28;20212;-62
2024/01/15 12:02:15;;;;;;;10.13;6.40;;;;;;;;;;5030959;28;20228;-61
2024/01/15 12:04:42;;;;;;;8.77;5.00;;;;;;;;;;5031661;28;20212;-61
2024/01/15 12:07:09;;;;;;;7.23;4.87;;;;;;;;;;5031310;28;20613;-61
2024/01/15 12:09:43;;;;;;;9.90;5.17;;;;;;;;;;5031377;28;20300;-61
2024/01/15 12:12:13;;;;;;;7.93;4.93;;;;;;;;;;5031348;28;20211;-62
2024/01/15 12:14:40;;;;;;;10.13;5.17;;;;;;;;;;5031052;28;20205;-62
2024/01/15 12:17:07;;;;;;;7.57;4.97;;;;;;;;;;5031571;28;20239;-62
2024/01/15 12:19:35;;;;;;;7.97;4.47;;;;;;;;;;5031320;28;20686;-61
2024/01/15 12:22:03;;;;;;;9.77;5.90;;;;;;;;;;5030657;28;20702;-61
2024/01/15 12:24:30;;;;;;;7.40;4.63;;;;;;;;;;5031065;28;20232;-60
2024/01/15 12:26:58;;;;;;;6.80;4.70;;;;;;;;;;5030979;28;20666;-61
2024/01/15 12:29:25;;;;;;;6.33;4.30;;;;;;;;;;5030868;28;20693;-61
2024/01/15 12:31:52;;;;;;;6.37;4.63;;;;;;;;;;5030125;28;20223;-61
2024/01/15 12:34:19;;;;;;;4.27;3.83;;;;;;;;;;5034398;28;20228;-61
2024/01/15 12:36:47;;;;;;;6.80;4.50;;;;;;;;;;5031070;28;20681;-61
2024/01/15 12:39:15;;;;;;;9.40;4.80;;;;;;;;;;5031074;28;20212;-62
2024/01/15 12:41:42;;;;;;;9.17;5.13;;;;;;;;;;5030169;28;20232;-62
2024/01/15 12:44:11;;;;;;;5.77;4.10;;;;;;;;;;5030428;28;20599;-62
2024/01/15 12:46:38;;;;;;;4.97;4.07;;;;;;;;;;5030511;28;20200;-61
2024/01/15 12:49:05;;;;;;;9.53;5.23;;;;;;;;;;5031146;28;20228;-61
2024/01/15 12:51:35;;;;;;;7.30;5.10;;;;;;;;;;5030234;28;20722;-62
2024/01/15 12:54:03;;;;;;;12.77;5.50;;;;;;;;;;5031428;28;20215;-60
2024/01/15 12:56:30;;;;;;;7.10;5.40;;;;;;;;;;5032018;28;20204;-61
2024/01/15 12:58:58;;;;;;;7.03;4.67;;;;;;;;;;5030058;28;20232;-61
2024/01/15 13:01:26;;;;;;;6.07;4.77;;;;;;;;;;5032710;28;20254;-63
2024/01/15 13:03:53;;;;;;;6.10;4.77;;;;;;;;;;5030098;28;20210;-64
2024/01/15 13:06:20;;;;;;;6.77;4.70;;;;;;;;;;5029270;28;20789;-63
2024/01/15 13:08:47;;;;;;;8.50;4.87;;;;;;;;;;5032930;28;20838;-65
2024/01/15 13:11:14;;;;;;;6.83;5.03;;;;;;;;;;5027003;28;20216;-63
2024/01/15 13:13:41;;;;;;;7.60;4.23;;;;;;;;;;5028614;28;20674;-65
2024/01/15 13:16:09;;;;;;;4.63;3.90;;;;;;;;;;5029415;28;20204;-64
2024/01/15 13:18:37;;;;;;;6.07;4.03;;;;;;;;;;5044328;28;20725;-65
2024/01/15 13:21:04;;;;;;;9.00;4.90;;;;;;;;;;5034718;28;20236;-62
2024/01/15 13:23:31;;;;;;;5.80;4.40;;;;;;;;;;5039807;28;20295;-62
2024/01/15 13:25:59;;;;;;;7.87;4.70;;;;;;;;;;5029296;28;20693;-61
2024/01/15 13:28:26;;;;;;;7.30;4.43;;;;;;;;;;5030024;28;20228;-61
2024/01/15 13:30:53;;;;;;;9.63;4.93;;;;;;;;;;5038601;28;20204;-62
2024/01/15 13:33:20;;;;;;;7.13;4.27;;;;;;;;;;5033247;28;20220;-62
2024/01/15 13:35:49;;;;;;;4.87;3.33;;;;;;;;;;5036214;28;20213;-64
2024/01/15 13:38:17;;;;;;;4.80;3.53;;;;;;;;;;5049248;28;20569;-60
2024/01/15 13:40:45;;;;;;;4.37;3.37;;;;;;;;;;5031227;28;20685;-62
2024/01/15 13:43:13;;;;;;;4.07;3.50;;;;;;;;;;5028603;28;20209;-61
2024/01/15 13:45:40;;;;;;;4.90;3.10;;;;;;;;;;5029367;28;20203;-59
2024/01/15 13:48:08;;;;;;;4.80;3.40;;;;;;;;;;5029119;28;20655;-62
2024/01/15 13:50:35;;;;;;;3.87;2.93;;;;;;;;;;5029114;28;20314;-60
2024/01/15 13:53:04;;;;;;;5.17;3.37;;;;;;;;;;5043174;28;20307;-60
2024/01/15 13:55:31;;;;;;;3.63;2.80;;;;;;;;;;5032495;28;20236;-60
2024/01/15 13:57:58;;;;;;;5.93;3.47;;;;;;;;;;5029182;28;20241;-59
2024/01/15 14:00:25;;;;;;;8.20;3.80;;;;;;;;;;5027965;28;20212;-61
2024/01/15 14:02:53;;;;;;;5.70;3.30;;;;;;;;;;5024796;28;20220;-60
2024/01/15 14:05:20;;;;;;;5.57;3.13;;;;;;;;;;5027904;28;20283;-60
2024/01/15 14:07:47;;;;;;;6.40;3.83;;;;;;;;;;5025501;28;20248;-60
2024/01/15 14:10:15;;;;;;;6.77;3.60;;;;;;;;;;5031239;28;20262;-60
2024/01/15 14:12:42;;;;;;;7.40;4.90;;;;;;;;;;5024882;28;20208;-61
2024/01/15 14:15:10;;;;;;;6.93;5.50;;;;;;;;;;5042314;28;20203;-60
2024/01/15 14:17:37;;;;;;;3.23;3.00;;;;;;;;;;5039746;28;20214;-60
2024/01/15 14:20:05;;;;;;;5.97;3.80;;;;;;;;;;5033247;28;20223;-61
2024/01/15 14:22:32;;;;;;;6.67;4.13;;;;;;;;;;5025723;28;20234;-60
2024/01/15 14:24:59;;;;;;;8.77;6.50;;;;;;;;;;5030685;28;20218;-60
2024/01/15 14:27:27;;;;;;;3.40;3.10;;;;;;;;;;5037242;28;20224;-60
2024/01/15 14:29:54;;;;;;;7.33;4.70;;;;;;;;;;5029302;28;20215;-60
2024/01/15 14:32:21;;;;;;;4.07;3.77;;;;;;;;;;5039554;28;20657;-60
2024/01/15 14:34:49;;;;;;;4.50;3.47;;;;;;;;;;5033750;28;20204;-60
2024/01/15 14:37:16;;;;;;;4.77;3.67;;;;;;;;;;5041332;28;20205;-60